Terminal Aerodrome Forecast
Issued by NWS King Salmon, AK

Home | Current Version | Previous Version | Text Only | Print | Product List | Glossary On
Versions: 1 2 3 4 5 6 7 8 9 10 11 12 13 14 15 16 17 18 19 20 21 22 23 24 25 26 27 28 29 30 31
000
FTAK31 PANC 180100 AAB
TAFAKN
TAF AMD
PAKN 180100Z 1801/1824 VRB05KT 6SM SHRA BR SCT010 BKN040
      TEMPO 1801/1803 3SM BR
     FM180900 33006KT 3SM BR SCT002 BKN030 OVC040
     FM181800 34004KT P6SM BKN020=

USA.gov is the U.S. government's official web portal to all federal, state and local government web resources and services.